sensor_id;sensor_type;location;lat;lon;timestamp;P1;durP1;ratioP1;P2;durP2;ratioP2
10884;SDS011;5495;53.252;10.390;2022-08-19T00:01:30;8.10;;;7.07;;
10884;SDS011;5495;53.252;10.390;2022-08-19T00:04:02;9.57;;;7.53;;
10884;SDS011;5495;53.252;10.390;2022-08-19T00:06:31;11.53;;;7.63;;
10884;SDS011;5495;53.252;10.390;2022-08-19T00:09:02;10.40;;;8.07;;
10884;SDS011;5495;53.252;10.390;2022-08-19T00:11:31;63.67;;;38.87;;
10884;SDS011;5495;53.252;10.390;2022-08-19T00:13:59;12.13;;;8.07;;
10884;SDS011;5495;53.252;10.390;2022-08-19T00:16:27;11.13;;;9.87;;
10884;SDS011;5495;53.252;10.390;2022-08-19T00:18:55;15.03;;;8.73;;
10884;SDS011;5495;53.252;10.390;2022-08-19T00:21:24;15.40;;;8.53;;
10884;SDS011;5495;53.252;10.390;2022-08-19T00:23:52;9.77;;;8.13;;
10884;SDS011;5495;53.252;10.390;2022-08-19T00:26:23;9.37;;;8.07;;
10884;SDS011;5495;53.252;10.390;2022-08-19T00:28:50;9.30;;;8.03;;
10884;SDS011;5495;53.252;10.390;2022-08-19T00:31:18;11.40;;;8.90;;
10884;SDS011;5495;53.252;10.390;2022-08-19T00:33:46;10.23;;;5.80;;
10884;SDS011;5495;53.252;10.390;2022-08-19T00:36:15;9.33;;;4.40;;
10884;SDS011;5495;53.252;10.390;2022-08-19T00:38:45;6.77;;;4.60;;
10884;SDS011;5495;53.252;10.390;2022-08-19T00:41:13;6.50;;;4.87;;
10884;SDS011;5495;53.252;10.390;2022-08-19T00:43:42;5.60;;;4.23;;
10884;SDS011;5495;53.252;10.390;2022-08-19T00:46:10;5.87;;;4.70;;
10884;SDS011;5495;53.252;10.390;2022-08-19T00:48:37;7.70;;;5.23;;
10884;SDS011;5495;53.252;10.390;2022-08-19T00:51:05;5.57;;;4.67;;
10884;SDS011;5495;53.252;10.390;2022-08-19T00:53:32;6.93;;;4.80;;
10884;SDS011;5495;53.252;10.390;2022-08-19T00:56:02;9.40;;;5.23;;
10884;SDS011;5495;53.252;10.390;2022-08-19T00:58:32;7.17;;;5.40;;
10884;SDS011;5495;53.252;10.390;2022-08-19T01:01:01;6.53;;;4.40;;
10884;SDS011;5495;53.252;10.390;2022-08-19T01:03:30;7.40;;;4.60;;
10884;SDS011;5495;53.252;10.390;2022-08-19T01:05:57;7.57;;;5.00;;
10884;SDS011;5495;53.252;10.390;2022-08-19T01:08:25;8.17;;;4.33;;
10884;SDS011;5495;53.252;10.390;2022-08-19T01:10:54;6.87;;;4.60;;
10884;SDS011;5495;53.252;10.390;2022-08-19T01:13:26;8.70;;;4.57;;
10884;SDS011;5495;53.252;10.390;2022-08-19T01:15:57;10.37;;;5.17;;
10884;SDS011;5495;53.252;10.390;2022-08-19T01:18:27;7.70;;;4.43;;
10884;SDS011;5495;53.252;10.390;2022-08-19T01:20:58;5.00;;;4.37;;
10884;SDS011;5495;53.252;10.390;2022-08-19T01:23:31;7.50;;;5.80;;
10884;SDS011;5495;53.252;10.390;2022-08-19T01:26:09;9.60;;;5.53;;
10884;SDS011;5495;53.252;10.390;2022-08-19T01:28:37;7.67;;;5.63;;
10884;SDS011;5495;53.252;10.390;2022-08-19T01:31:06;9.73;;;5.00;;
10884;SDS011;5495;53.252;10.390;2022-08-19T01:33:39;7.47;;;4.80;;
10884;SDS011;5495;53.252;10.390;2022-08-19T01:36:07;9.20;;;5.60;;
10884;SDS011;5495;53.252;10.390;2022-08-19T01:38:39;6.80;;;4.93;;
10884;SDS011;5495;53.252;10.390;2022-08-19T01:41:09;6.80;;;5.07;;
10884;SDS011;5495;53.252;10.390;2022-08-19T01:43:37;10.67;;;5.77;;
10884;SDS011;5495;53.252;10.390;2022-08-19T01:46:04;9.93;;;4.70;;
10884;SDS011;5495;53.252;10.390;2022-08-19T01:48:32;8.47;;;5.53;;
10884;SDS011;5495;53.252;10.390;2022-08-19T01:51:01;8.93;;;5.20;;
10884;SDS011;5495;53.252;10.390;2022-08-19T01:53:28;6.07;;;4.90;;
10884;SDS011;5495;53.252;10.390;2022-08-19T01:55:58;9.37;;;6.33;;
10884;SDS011;5495;53.252;10.390;2022-08-19T01:58:26;5.97;;;5.37;;
10884;SDS011;5495;53.252;10.390;2022-08-19T02:00:57;8.67;;;5.83;;
10884;SDS011;5495;53.252;10.390;2022-08-19T02:03:24;9.70;;;5.53;;
10884;SDS011;5495;53.252;10.390;2022-08-19T02:05:55;8.67;;;5.60;;
10884;SDS011;5495;53.252;10.390;2022-08-19T02:08:25;7.87;;;5.40;;
10884;SDS011;5495;53.252;10.390;2022-08-19T02:10:52;10.70;;;5.23;;
10884;SDS011;5495;53.252;10.390;2022-08-19T02:13:23;6.97;;;4.90;;
10884;SDS011;5495;53.252;10.390;2022-08-19T02:15:51;8.43;;;6.20;;
10884;SDS011;5495;53.252;10.390;2022-08-19T02:18:19;7.60;;;5.97;;
10884;SDS011;5495;53.252;10.390;2022-08-19T02:20:46;7.57;;;5.60;;
10884;SDS011;5495;53.252;10.390;2022-08-19T02:23:15;6.23;;;3.83;;
10884;SDS011;5495;53.252;10.390;2022-08-19T02:25:43;4.80;;;2.67;;
10884;SDS011;5495;53.252;10.390;2022-08-19T02:28:13;3.93;;;2.87;;
10884;SDS011;5495;53.252;10.390;2022-08-19T02:30:42;9.33;;;3.07;;
10884;SDS011;5495;53.252;10.390;2022-08-19T02:33:09;6.50;;;3.63;;
10884;SDS011;5495;53.252;10.390;2022-08-19T02:35:37;4.57;;;3.37;;
10884;SDS011;5495;53.252;10.390;2022-08-19T02:38:07;5.83;;;4.03;;
10884;SDS011;5495;53.252;10.390;2022-08-19T02:40:54;5.07;;;3.30;;
10884;SDS011;5495;53.252;10.390;2022-08-19T02:43:22;6.57;;;3.90;;
10884;SDS011;5495;53.252;10.390;2022-08-19T02:45:52;11.13;;;3.40;;
10884;SDS011;5495;53.252;10.390;2022-08-19T02:48:20;6.13;;;3.67;;
10884;SDS011;5495;53.252;10.390;2022-08-19T02:50:49;6.13;;;3.50;;
10884;SDS011;5495;53.252;10.390;2022-08-19T02:53:20;5.17;;;3.73;;
10884;SDS011;5495;53.252;10.390;2022-08-19T02:55:48;5.80;;;3.43;;
10884;SDS011;5495;53.252;10.390;2022-08-19T02:58:16;7.13;;;4.10;;
10884;SDS011;5495;53.252;10.390;2022-08-19T03:00:45;6.20;;;3.80;;
10884;SDS011;5495;53.252;10.390;2022-08-19T03:03:16;5.63;;;3.77;;
10884;SDS011;5495;53.252;10.390;2022-08-19T03:05:44;7.47;;;4.77;;
10884;SDS011;5495;53.252;10.390;2022-08-19T03:08:12;7.60;;;4.93;;
10884;SDS011;5495;53.252;10.390;2022-08-19T03:10:40;8.43;;;5.33;;
10884;SDS011;5495;53.252;10.390;2022-08-19T03:13:11;8.70;;;5.03;;
10884;SDS011;5495;53.252;10.390;2022-08-19T03:15:40;9.50;;;5.87;;
10884;SDS011;5495;53.252;10.390;2022-08-19T03:18:08;11.33;;;5.73;;
10884;SDS011;5495;53.252;10.390;2022-08-19T03:20:41;9.50;;;6.60;;
10884;SDS011;5495;53.252;10.390;2022-08-19T03:23:09;15.23;;;7.70;;
10884;SDS011;5495;53.252;10.390;2022-08-19T03:25:38;16.57;;;11.93;;
10884;SDS011;5495;53.252;10.390;2022-08-19T03:28:08;17.60;;;12.13;;
10884;SDS011;5495;53.252;10.390;2022-08-19T03:30:35;16.37;;;12.73;;
10884;SDS011;5495;53.252;10.390;2022-08-19T03:33:04;18.80;;;13.20;;
10884;SDS011;5495;53.252;10.390;2022-08-19T03:35:32;17.83;;;13.13;;
10884;SDS011;5495;53.252;10.390;2022-08-19T03:38:03;17.17;;;12.73;;
10884;SDS011;5495;53.252;10.390;2022-08-19T03:40:31;17.43;;;11.63;;
10884;SDS011;5495;53.252;10.390;2022-08-19T03:43:00;18.17;;;11.90;;
10884;SDS011;5495;53.252;10.390;2022-08-19T03:45:27;21.27;;;13.27;;
10884;SDS011;5495;53.252;10.390;2022-08-19T03:47:55;15.60;;;12.13;;
10884;SDS011;5495;53.252;10.390;2022-08-19T03:50:22;19.00;;;12.87;;
10884;SDS011;5495;53.252;10.390;2022-08-19T03:52:50;18.77;;;12.87;;
10884;SDS011;5495;53.252;10.390;2022-08-19T03:55:19;19.27;;;13.00;;
10884;SDS011;5495;53.252;10.390;2022-08-19T03:57:47;18.70;;;12.67;;
10884;SDS011;5495;53.252;10.390;2022-08-19T04:00:14;18.50;;;11.77;;
10884;SDS011;5495;53.252;10.390;2022-08-19T04:02:43;17.33;;;12.40;;
10884;SDS011;5495;53.252;10.390;2022-08-19T04:05:11;18.83;;;12.03;;
10884;SDS011;5495;53.252;10.390;2022-08-19T04:07:39;19.60;;;11.70;;
10884;SDS011;5495;53.252;10.390;2022-08-19T04:10:06;15.33;;;10.57;;
10884;SDS011;5495;53.252;10.390;2022-08-19T04:12:36;22.33;;;11.10;;
10884;SDS011;5495;53.252;10.390;2022-08-19T04:15:04;18.27;;;10.50;;
10884;SDS011;5495;53.252;10.390;2022-08-19T04:17:33;13.40;;;10.57;;
10884;SDS011;5495;53.252;10.390;2022-08-19T04:20:00;17.67;;;10.53;;
10884;SDS011;5495;53.252;10.390;2022-08-19T04:22:28;15.83;;;9.80;;
10884;SDS011;5495;53.252;10.390;2022-08-19T04:24:55;16.03;;;9.17;;
10884;SDS011;5495;53.252;10.390;2022-08-19T04:27:22;13.90;;;9.60;;
10884;SDS011;5495;53.252;10.390;2022-08-19T04:29:51;17.67;;;10.13;;
10884;SDS011;5495;53.252;10.390;2022-08-19T04:32:19;17.10;;;9.60;;
10884;SDS011;5495;53.252;10.390;2022-08-19T04:34:47;17.00;;;10.27;;
10884;SDS011;5495;53.252;10.390;2022-08-19T04:37:15;14.73;;;10.30;;
10884;SDS011;5495;53.252;10.390;2022-08-19T04:39:42;13.63;;;9.87;;
10884;SDS011;5495;53.252;10.390;2022-08-19T04:42:27;15.83;;;10.47;;
10884;SDS011;5495;53.252;10.390;2022-08-19T04:45:09;13.07;;;9.80;;
10884;SDS011;5495;53.252;10.390;2022-08-19T04:47:40;14.47;;;9.97;;
10884;SDS011;5495;53.252;10.390;2022-08-19T04:50:09;18.00;;;10.57;;
10884;SDS011;5495;53.252;10.390;2022-08-19T04:52:37;18.50;;;9.83;;
10884;SDS011;5495;53.252;10.390;2022-08-19T04:55:08;15.97;;;10.40;;
10884;SDS011;5495;53.252;10.390;2022-08-19T04:57:36;16.77;;;10.73;;
10884;SDS011;5495;53.252;10.390;2022-08-19T05:00:05;13.83;;;9.60;;
10884;SDS011;5495;53.252;10.390;2022-08-19T05:02:36;15.17;;;10.37;;
10884;SDS011;5495;53.252;10.390;2022-08-19T05:05:03;19.40;;;11.07;;
10884;SDS011;5495;53.252;10.390;2022-08-19T05:07:32;16.97;;;10.93;;
10884;SDS011;5495;53.252;10.390;2022-08-19T05:09:59;15.37;;;10.80;;
10884;SDS011;5495;53.252;10.390;2022-08-19T05:12:26;19.97;;;11.30;;
10884;SDS011;5495;53.252;10.390;2022-08-19T05:14:54;13.10;;;10.07;;
10884;SDS011;5495;53.252;10.390;2022-08-19T05:17:23;17.37;;;10.17;;
10884;SDS011;5495;53.252;10.390;2022-08-19T05:19:52;16.87;;;10.83;;
10884;SDS011;5495;53.252;10.390;2022-08-19T05:22:37;12.37;;;9.63;;
10884;SDS011;5495;53.252;10.390;2022-08-19T05:25:06;19.57;;;9.97;;
10884;SDS011;5495;53.252;10.390;2022-08-19T05:27:35;17.13;;;11.13;;
10884;SDS011;5495;53.252;10.390;2022-08-19T05:30:03;21.73;;;10.80;;
10884;SDS011;5495;53.252;10.390;2022-08-19T05:32:31;18.07;;;11.87;;
10884;SDS011;5495;53.252;10.390;2022-08-19T05:35:00;14.43;;;10.30;;
10884;SDS011;5495;53.252;10.390;2022-08-19T05:37:28;16.77;;;10.37;;
10884;SDS011;5495;53.252;10.390;2022-08-19T05:39:55;15.90;;;9.73;;
10884;SDS011;5495;53.252;10.390;2022-08-19T05:42:23;18.93;;;12.03;;
10884;SDS011;5495;53.252;10.390;2022-08-19T05:44:50;17.43;;;11.63;;
10884;SDS011;5495;53.252;10.390;2022-08-19T05:47:18;18.70;;;11.03;;
10884;SDS011;5495;53.252;10.390;2022-08-19T05:49:46;17.00;;;11.20;;
10884;SDS011;5495;53.252;10.390;2022-08-19T05:52:17;14.33;;;10.17;;
10884;SDS011;5495;53.252;10.390;2022-08-19T05:54:46;18.70;;;11.83;;
10884;SDS011;5495;53.252;10.390;2022-08-19T05:57:16;18.53;;;10.60;;
10884;SDS011;5495;53.252;10.390;2022-08-19T05:59:44;17.80;;;10.33;;
10884;SDS011;5495;53.252;10.390;2022-08-19T06:02:13;19.83;;;12.47;;
10884;SDS011;5495;53.252;10.390;2022-08-19T06:04:40;22.37;;;12.23;;
10884;SDS011;5495;53.252;10.390;2022-08-19T06:07:08;18.03;;;11.50;;
10884;SDS011;5495;53.252;10.390;2022-08-19T06:09:37;20.03;;;12.03;;
10884;SDS011;5495;53.252;10.390;2022-08-19T06:12:05;20.47;;;14.03;;
10884;SDS011;5495;53.252;10.390;2022-08-19T06:14:34;22.33;;;13.47;;
10884;SDS011;5495;53.252;10.390;2022-08-19T06:17:02;25.93;;;15.03;;
10884;SDS011;5495;53.252;10.390;2022-08-19T06:19:30;22.20;;;14.07;;
10884;SDS011;5495;53.252;10.390;2022-08-19T06:21:58;21.97;;;14.07;;
10884;SDS011;5495;53.252;10.390;2022-08-19T06:24:26;23.80;;;15.93;;
10884;SDS011;5495;53.252;10.390;2022-08-19T06:26:59;25.80;;;15.47;;
10884;SDS011;5495;53.252;10.390;2022-08-19T06:29:30;25.57;;;16.33;;
10884;SDS011;5495;53.252;10.390;2022-08-19T06:31:59;25.20;;;15.30;;
10884;SDS011;5495;53.252;10.390;2022-08-19T06:34:29;25.37;;;17.67;;
10884;SDS011;5495;53.252;10.390;2022-08-19T06:36:58;28.47;;;18.50;;
10884;SDS011;5495;53.252;10.390;2022-08-19T06:39:27;33.77;;;20.97;;
10884;SDS011;5495;53.252;10.390;2022-08-19T06:42:00;38.17;;;21.43;;
10884;SDS011;5495;53.252;10.390;2022-08-19T06:44:32;32.93;;;20.40;;
10884;SDS011;5495;53.252;10.390;2022-08-19T06:47:02;45.17;;;26.13;;
10884;SDS011;5495;53.252;10.390;2022-08-19T06:49:30;37.17;;;25.13;;
10884;SDS011;5495;53.252;10.390;2022-08-19T06:51:58;38.40;;;26.40;;
10884;SDS011;5495;53.252;10.390;2022-08-19T06:54:26;40.30;;;25.47;;
10884;SDS011;5495;53.252;10.390;2022-08-19T06:56:54;36.27;;;25.10;;
10884;SDS011;5495;53.252;10.390;2022-08-19T06:59:24;41.30;;;25.83;;
10884;SDS011;5495;53.252;10.390;2022-08-19T07:01:55;35.50;;;25.13;;
10884;SDS011;5495;53.252;10.390;2022-08-19T07:04:25;34.47;;;25.33;;
10884;SDS011;5495;53.252;10.390;2022-08-19T07:06:57;39.03;;;24.27;;
10884;SDS011;5495;53.252;10.390;2022-08-19T07:09:25;35.63;;;24.07;;
10884;SDS011;5495;53.252;10.390;2022-08-19T07:11:54;36.37;;;25.60;;
10884;SDS011;5495;53.252;10.390;2022-08-19T07:14:22;37.20;;;25.27;;
10884;SDS011;5495;53.252;10.390;2022-08-19T07:16:53;37.07;;;25.60;;
10884;SDS011;5495;53.252;10.390;2022-08-19T07:19:23;37.40;;;25.87;;
10884;SDS011;5495;53.252;10.390;2022-08-19T07:21:52;38.27;;;26.30;;
10884;SDS011;5495;53.252;10.390;2022-08-19T07:24:21;38.10;;;26.57;;
10884;SDS011;5495;53.252;10.390;2022-08-19T07:26:50;36.13;;;26.00;;
10884;SDS011;5495;53.252;10.390;2022-08-19T07:29:20;37.50;;;27.37;;
10884;SDS011;5495;53.252;10.390;2022-08-19T07:31:50;43.23;;;24.87;;
10884;SDS011;5495;53.252;10.390;2022-08-19T07:34:21;38.73;;;26.33;;
10884;SDS011;5495;53.252;10.390;2022-08-19T07:36:52;40.17;;;27.67;;
10884;SDS011;5495;53.252;10.390;2022-08-19T07:39:23;40.67;;;27.27;;
10884;SDS011;5495;53.252;10.390;2022-08-19T07:41:52;42.20;;;27.57;;
10884;SDS011;5495;53.252;10.390;2022-08-19T07:44:20;45.10;;;28.93;;
10884;SDS011;5495;53.252;10.390;2022-08-19T07:46:50;42.53;;;29.20;;
10884;SDS011;5495;53.252;10.390;2022-08-19T07:49:21;45.23;;;28.90;;
10884;SDS011;5495;53.252;10.390;2022-08-19T07:51:50;46.07;;;29.63;;
10884;SDS011;5495;53.252;10.390;2022-08-19T07:54:19;47.57;;;30.23;;
10884;SDS011;5495;53.252;10.390;2022-08-19T07:56:47;49.70;;;30.30;;
10884;SDS011;5495;53.252;10.390;2022-08-19T07:59:16;53.13;;;32.87;;
10884;SDS011;5495;53.252;10.390;2022-08-19T08:01:44;50.47;;;32.17;;
10884;SDS011;5495;53.252;10.390;2022-08-19T08:04:13;54.10;;;32.17;;
10884;SDS011;5495;53.252;10.390;2022-08-19T08:06:58;49.60;;;31.07;;
10884;SDS011;5495;53.252;10.390;2022-08-19T08:09:43;53.67;;;32.40;;
10884;SDS011;5495;53.252;10.390;2022-08-19T08:12:12;53.03;;;33.03;;
10884;SDS011;5495;53.252;10.390;2022-08-19T08:14:42;52.73;;;32.60;;
10884;SDS011;5495;53.252;10.390;2022-08-19T08:17:12;50.50;;;31.67;;
10884;SDS011;5495;53.252;10.390;2022-08-19T08:19:42;48.53;;;30.93;;
10884;SDS011;5495;53.252;10.390;2022-08-19T08:22:10;49.60;;;29.73;;
10884;SDS011;5495;53.252;10.390;2022-08-19T08:25:03;51.33;;;32.60;;
10884;SDS011;5495;53.252;10.390;2022-08-19T08:27:34;50.43;;;31.77;;
10884;SDS011;5495;53.252;10.390;2022-08-19T08:30:05;50.63;;;32.07;;
10884;SDS011;5495;53.252;10.390;2022-08-19T08:32:35;49.50;;;30.70;;
10884;SDS011;5495;53.252;10.390;2022-08-19T08:35:06;52.80;;;30.97;;
10884;SDS011;5495;53.252;10.390;2022-08-19T08:37:37;56.90;;;32.53;;
10884;SDS011;5495;53.252;10.390;2022-08-19T08:40:05;51.13;;;30.53;;
10884;SDS011;5495;53.252;10.390;2022-08-19T08:42:36;51.33;;;30.57;;
10884;SDS011;5495;53.252;10.390;2022-08-19T08:45:11;54.53;;;29.57;;
10884;SDS011;5495;53.252;10.390;2022-08-19T08:47:41;52.20;;;29.37;;
10884;SDS011;5495;53.252;10.390;2022-08-19T08:50:16;49.13;;;28.83;;
10884;SDS011;5495;53.252;10.390;2022-08-19T08:52:50;44.30;;;28.27;;
10884;SDS011;5495;53.252;10.390;2022-08-19T08:55:21;47.90;;;28.47;;
10884;SDS011;5495;53.252;10.390;2022-08-19T08:57:51;48.60;;;26.93;;
10884;SDS011;5495;53.252;10.390;2022-08-19T09:00:22;44.73;;;27.77;;
10884;SDS011;5495;53.252;10.390;2022-08-19T09:02:52;44.40;;;27.50;;
10884;SDS011;5495;53.252;10.390;2022-08-19T09:05:21;42.50;;;26.87;;
10884;SDS011;5495;53.252;10.390;2022-08-19T09:07:53;43.50;;;27.30;;
10884;SDS011;5495;53.252;10.390;2022-08-19T09:10:28;45.90;;;26.97;;
10884;SDS011;5495;53.252;10.390;2022-08-19T09:13:05;43.90;;;26.00;;
10884;SDS011;5495;53.252;10.390;2022-08-19T09:15:41;40.43;;;24.93;;
10884;SDS011;5495;53.252;10.390;2022-08-19T09:18:11;43.70;;;27.63;;
10884;SDS011;5495;53.252;10.390;2022-08-19T09:20:40;42.17;;;25.97;;
10884;SDS011;5495;53.252;10.390;2022-08-19T09:23:08;35.30;;;23.33;;
10884;SDS011;5495;53.252;10.390;2022-08-19T09:25:37;41.30;;;24.30;;
10884;SDS011;5495;53.252;10.390;2022-08-19T09:28:05;40.30;;;24.37;;
10884;SDS011;5495;53.252;10.390;2022-08-19T09:30:33;38.60;;;23.93;;
10884;SDS011;5495;53.252;10.390;2022-08-19T09:33:05;37.43;;;22.87;;
10884;SDS011;5495;53.252;10.390;2022-08-19T09:35:34;38.00;;;21.97;;
10884;SDS011;5495;53.252;10.390;2022-08-19T09:38:05;35.43;;;23.03;;
10884;SDS011;5495;53.252;10.390;2022-08-19T09:40:35;36.17;;;23.03;;
10884;SDS011;5495;53.252;10.390;2022-08-19T09:43:02;31.83;;;20.87;;
10884;SDS011;5495;53.252;10.390;2022-08-19T09:45:30;37.90;;;21.87;;
10884;SDS011;5495;53.252;10.390;2022-08-19T09:47:58;36.83;;;20.40;;
10884;SDS011;5495;53.252;10.390;2022-08-19T09:50:26;36.40;;;21.43;;
10884;SDS011;5495;53.252;10.390;2022-08-19T09:52:53;38.83;;;22.17;;
10884;SDS011;5495;53.252;10.390;2022-08-19T09:55:23;31.60;;;21.57;;
10884;SDS011;5495;53.252;10.390;2022-08-19T09:57:53;34.20;;;21.70;;
10884;SDS011;5495;53.252;10.390;2022-08-19T10:00:20;37.77;;;23.27;;
10884;SDS011;5495;53.252;10.390;2022-08-19T10:02:48;37.77;;;22.70;;
10884;SDS011;5495;53.252;10.390;2022-08-19T10:05:15;38.80;;;22.97;;
10884;SDS011;5495;53.252;10.390;2022-08-19T10:08:00;36.60;;;22.27;;
10884;SDS011;5495;53.252;10.390;2022-08-19T10:10:29;39.37;;;22.00;;
10884;SDS011;5495;53.252;10.390;2022-08-19T10:13:01;36.53;;;22.70;;
10884;SDS011;5495;53.252;10.390;2022-08-19T10:15:29;38.07;;;23.00;;
10884;SDS011;5495;53.252;10.390;2022-08-19T10:17:56;41.83;;;23.67;;
10884;SDS011;5495;53.252;10.390;2022-08-19T10:20:24;38.90;;;23.47;;
10884;SDS011;5495;53.252;10.390;2022-08-19T10:22:52;43.47;;;22.67;;
10884;SDS011;5495;53.252;10.390;2022-08-19T10:25:20;42.03;;;24.33;;
10884;SDS011;5495;53.252;10.390;2022-08-19T10:27:50;36.80;;;23.13;;
10884;SDS011;5495;53.252;10.390;2022-08-19T10:30:19;39.93;;;23.40;;
10884;SDS011;5495;53.252;10.390;2022-08-19T10:32:47;38.77;;;23.20;;
10884;SDS011;5495;53.252;10.390;2022-08-19T10:35:16;35.23;;;21.23;;
10884;SDS011;5495;53.252;10.390;2022-08-19T10:37:45;41.40;;;25.07;;
10884;SDS011;5495;53.252;10.390;2022-08-19T10:40:14;43.70;;;26.47;;
10884;SDS011;5495;53.252;10.390;2022-08-19T10:42:44;41.53;;;24.60;;
10884;SDS011;5495;53.252;10.390;2022-08-19T10:45:13;44.30;;;25.97;;
10884;SDS011;5495;53.252;10.390;2022-08-19T10:47:40;46.27;;;25.30;;
10884;SDS011;5495;53.252;10.390;2022-08-19T10:50:07;44.93;;;26.57;;
10884;SDS011;5495;53.252;10.390;2022-08-19T10:52:52;48.83;;;27.00;;
10884;SDS011;5495;53.252;10.390;2022-08-19T10:55:21;47.80;;;26.77;;
10884;SDS011;5495;53.252;10.390;2022-08-19T10:58:10;42.70;;;26.33;;
10884;SDS011;5495;53.252;10.390;2022-08-19T11:00:40;46.20;;;26.97;;
10884;SDS011;5495;53.252;10.390;2022-08-19T11:03:08;44.50;;;29.40;;
10884;SDS011;5495;53.252;10.390;2022-08-19T11:05:35;52.23;;;29.33;;
10884;SDS011;5495;53.252;10.390;2022-08-19T11:08:03;44.97;;;28.73;;
10884;SDS011;5495;53.252;10.390;2022-08-19T11:10:36;39.70;;;27.63;;
10884;SDS011;5495;53.252;10.390;2022-08-19T11:13:07;46.47;;;29.00;;
10884;SDS011;5495;53.252;10.390;2022-08-19T11:15:35;45.00;;;27.47;;
10884;SDS011;5495;53.252;10.390;2022-08-19T11:18:04;47.30;;;30.37;;
10884;SDS011;5495;53.252;10.390;2022-08-19T11:20:33;55.60;;;30.37;;
10884;SDS011;5495;53.252;10.390;2022-08-19T11:23:01;43.83;;;28.90;;
10884;SDS011;5495;53.252;10.390;2022-08-19T11:25:29;49.60;;;29.90;;
10884;SDS011;5495;53.252;10.390;2022-08-19T11:27:57;49.73;;;28.90;;
10884;SDS011;5495;53.252;10.390;2022-08-19T11:30:24;44.63;;;28.20;;
10884;SDS011;5495;53.252;10.390;2022-08-19T11:32:53;40.57;;;26.57;;
10884;SDS011;5495;53.252;10.390;2022-08-19T11:35:22;40.33;;;24.97;;
10884;SDS011;5495;53.252;10.390;2022-08-19T11:37:49;40.43;;;27.43;;
10884;SDS011;5495;53.252;10.390;2022-08-19T11:40:18;46.57;;;27.70;;
10884;SDS011;5495;53.252;10.390;2022-08-19T11:42:46;46.63;;;30.47;;
10884;SDS011;5495;53.252;10.390;2022-08-19T11:45:23;43.27;;;27.67;;
10884;SDS011;5495;53.252;10.390;2022-08-19T11:47:52;47.67;;;29.13;;
10884;SDS011;5495;53.252;10.390;2022-08-19T11:50:19;42.80;;;29.93;;
10884;SDS011;5495;53.252;10.390;2022-08-19T11:52:53;47.03;;;28.90;;
10884;SDS011;5495;53.252;10.390;2022-08-19T11:55:21;42.80;;;29.10;;
10884;SDS011;5495;53.252;10.390;2022-08-19T11:57:49;46.27;;;30.87;;
10884;SDS011;5495;53.252;10.390;2022-08-19T12:00:17;44.00;;;31.17;;
10884;SDS011;5495;53.252;10.390;2022-08-19T12:02:45;50.27;;;33.13;;
10884;SDS011;5495;53.252;10.390;2022-08-19T12:05:13;45.83;;;31.03;;
10884;SDS011;5495;53.252;10.390;2022-08-19T12:07:42;44.57;;;30.57;;
10884;SDS011;5495;53.252;10.390;2022-08-19T12:10:09;39.37;;;29.33;;
10884;SDS011;5495;53.252;10.390;2022-08-19T12:12:37;41.83;;;29.07;;
10884;SDS011;5495;53.252;10.390;2022-08-19T12:15:08;44.20;;;30.53;;
10884;SDS011;5495;53.252;10.390;2022-08-19T12:17:36;43.30;;;30.47;;
10884;SDS011;5495;53.252;10.390;2022-08-19T12:20:04;40.63;;;29.53;;
10884;SDS011;5495;53.252;10.390;2022-08-19T12:22:33;40.93;;;30.67;;
10884;SDS011;5495;53.252;10.390;2022-08-19T12:25:03;39.43;;;30.33;;
10884;SDS011;5495;53.252;10.390;2022-08-19T12:27:31;42.53;;;30.47;;
10884;SDS011;5495;53.252;10.390;2022-08-19T12:29:58;37.97;;;32.07;;
10884;SDS011;5495;53.252;10.390;2022-08-19T12:32:26;40.33;;;31.00;;
10884;SDS011;5495;53.252;10.390;2022-08-19T12:34:54;42.00;;;31.80;;
10884;SDS011;5495;53.252;10.390;2022-08-19T12:37:22;38.50;;;29.33;;
10884;SDS011;5495;53.252;10.390;2022-08-19T12:39:49;40.80;;;31.07;;
10884;SDS011;5495;53.252;10.390;2022-08-19T12:42:19;35.40;;;27.73;;
10884;SDS011;5495;53.252;10.390;2022-08-19T12:44:47;41.30;;;31.57;;
10884;SDS011;5495;53.252;10.390;2022-08-19T12:47:18;33.77;;;30.07;;
10884;SDS011;5495;53.252;10.390;2022-08-19T12:49:45;44.00;;;32.97;;
10884;SDS011;5495;53.252;10.390;2022-08-19T12:52:13;35.23;;;30.27;;
10884;SDS011;5495;53.252;10.390;2022-08-19T12:54:42;40.43;;;32.47;;
10884;SDS011;5495;53.252;10.390;2022-08-19T12:57:10;41.13;;;31.60;;
10884;SDS011;5495;53.252;10.390;2022-08-19T12:59:39;40.90;;;30.70;;
10884;SDS011;5495;53.252;10.390;2022-08-19T13:02:06;37.77;;;30.43;;
10884;SDS011;5495;53.252;10.390;2022-08-19T13:04:34;36.53;;;29.33;;
10884;SDS011;5495;53.252;10.390;2022-08-19T13:07:06;36.33;;;28.83;;
10884;SDS011;5495;53.252;10.390;2022-08-19T13:09:36;36.07;;;27.33;;
10884;SDS011;5495;53.252;10.390;2022-08-19T13:12:07;33.77;;;27.77;;
10884;SDS011;5495;53.252;10.390;2022-08-19T13:14:39;38.37;;;29.23;;
10884;SDS011;5495;53.252;10.390;2022-08-19T13:17:07;33.80;;;26.73;;
10884;SDS011;5495;53.252;10.390;2022-08-19T13:19:36;29.57;;;26.43;;
10884;SDS011;5495;53.252;10.390;2022-08-19T13:22:08;35.83;;;29.23;;
10884;SDS011;5495;53.252;10.390;2022-08-19T13:24:35;32.73;;;27.40;;
10884;SDS011;5495;53.252;10.390;2022-08-19T13:27:03;31.97;;;28.30;;
10884;SDS011;5495;53.252;10.390;2022-08-19T13:29:32;35.77;;;29.70;;
10884;SDS011;5495;53.252;10.390;2022-08-19T13:32:18;33.10;;;28.43;;
10884;SDS011;5495;53.252;10.390;2022-08-19T13:35:03;36.03;;;28.57;;
10884;SDS011;5495;53.252;10.390;2022-08-19T13:37:31;35.53;;;27.43;;
10884;SDS011;5495;53.252;10.390;2022-08-19T13:40:08;31.27;;;26.20;;
10884;SDS011;5495;53.252;10.390;2022-08-19T13:42:37;34.60;;;27.60;;
10884;SDS011;5495;53.252;10.390;2022-08-19T13:45:05;33.27;;;25.57;;
10884;SDS011;5495;53.252;10.390;2022-08-19T13:47:37;29.77;;;25.50;;
10884;SDS011;5495;53.252;10.390;2022-08-19T13:50:10;30.70;;;24.63;;
10884;SDS011;5495;53.252;10.390;2022-08-19T13:52:42;30.87;;;25.23;;
10884;SDS011;5495;53.252;10.390;2022-08-19T13:55:15;33.17;;;26.37;;
10884;SDS011;5495;53.252;10.390;2022-08-19T13:57:46;28.07;;;24.23;;
10884;SDS011;5495;53.252;10.390;2022-08-19T14:00:19;28.13;;;24.27;;
10884;SDS011;5495;53.252;10.390;2022-08-19T14:02:51;32.37;;;25.77;;
10884;SDS011;5495;53.252;10.390;2022-08-19T14:05:20;31.30;;;25.83;;
10884;SDS011;5495;53.252;10.390;2022-08-19T14:07:48;30.60;;;22.93;;
10884;SDS011;5495;53.252;10.390;2022-08-19T14:10:16;25.73;;;23.03;;
10884;SDS011;5495;53.252;10.390;2022-08-19T14:12:45;28.43;;;25.03;;
10884;SDS011;5495;53.252;10.390;2022-08-19T14:15:14;29.73;;;26.43;;
10884;SDS011;5495;53.252;10.390;2022-08-19T14:17:42;29.50;;;25.07;;
10884;SDS011;5495;53.252;10.390;2022-08-19T14:20:15;26.77;;;23.93;;
10884;SDS011;5495;53.252;10.390;2022-08-19T14:22:43;27.70;;;22.97;;
10884;SDS011;5495;53.252;10.390;2022-08-19T14:25:13;23.90;;;20.97;;
10884;SDS011;5495;53.252;10.390;2022-08-19T14:27:43;25.57;;;21.07;;
10884;SDS011;5495;53.252;10.390;2022-08-19T14:30:13;26.80;;;23.00;;
10884;SDS011;5495;53.252;10.390;2022-08-19T14:32:42;23.07;;;20.67;;
10884;SDS011;5495;53.252;10.390;2022-08-19T14:35:10;21.77;;;19.47;;
10884;SDS011;5495;53.252;10.390;2022-08-19T14:37:40;22.70;;;18.97;;
10884;SDS011;5495;53.252;10.390;2022-08-19T14:40:10;18.73;;;16.73;;
10884;SDS011;5495;53.252;10.390;2022-08-19T14:42:39;22.80;;;19.23;;